Time;durP1;ratioP1;P1;durP2;ratioP2;P2;SDS_P1;SDS_P2;PMS_P1;PMS_P2;Temp;Humidity;BMP_temperature;BMP_pressure;BME280_temperature;BME280_humidity;BME280_pressure;Samples;Min_cycle;Max_cycle;Signal;HPM_P1;HPM_P2
2020/12/28 00:00:15;;;;;;;7.40;6.53;;;;;;;;;;4993060;28;20195;-49
2020/12/28 00:02:40;;;;;;;7.67;6.60;;;;;;;;;;4999815;28;20211;-49
2020/12/28 00:05:09;;;;;;;6.83;6.23;;;;;;;;;;5003109;28;20605;-50
2020/12/28 00:07:35;;;;;;;8.17;6.40;;;;;;;;;;5009388;28;20173;-49
2020/12/28 00:10:00;;;;;;;6.27;5.73;;;;;;;;;;4994576;28;20595;-49
2020/12/28 00:12:29;;;;;;;7.60;6.80;;;;;;;;;;4995776;28;20312;-53
2020/12/28 00:14:55;;;;;;;5.93;5.50;;;;;;;;;;4990911;28;20175;-49
2020/12/28 00:17:20;;;;;;;7.27;6.57;;;;;;;;;;5000951;28;21018;-49
2020/12/28 00:19:45;;;;;;;7.40;6.60;;;;;;;;;;4996054;28;20266;-48
2020/12/28 00:22:10;;;;;;;6.60;5.97;;;;;;;;;;4992694;28;20447;-49
2020/12/28 00:24:35;;;;;;;6.30;5.70;;;;;;;;;;4996028;28;20355;-49
2020/12/28 00:27:00;;;;;;;6.85;6.25;;;;;;;;;;5003327;28;20673;-48
2020/12/28 00:29:26;;;;;;;7.23;6.57;;;;;;;;;;4999105;28;20170;-49
2020/12/28 00:31:51;;;;;;;7.90;7.07;;;;;;;;;;5003747;28;20180;-49
2020/12/28 00:34:16;;;;;;;6.77;6.17;;;;;;;;;;4998121;28;20201;-48
2020/12/28 00:36:41;;;;;;;6.40;5.80;;;;;;;;;;5017287;28;20183;-48
2020/12/28 00:39:06;;;;;;;6.63;6.03;;;;;;;;;;5011260;28;20774;-49
2020/12/28 00:41:32;;;;;;;7.77;7.07;;;;;;;;;;4999717;28;20240;-49
2020/12/28 00:43:57;;;;;;;6.60;6.00;;;;;;;;;;5003448;28;20260;-48
2020/12/28 00:46:22;;;;;;;6.68;6.00;;;;;;;;;;5000289;28;20209;-49
2020/12/28 00:48:47;;;;;;;7.28;6.57;;;;;;;;;;5003052;28;20176;-49
2020/12/28 00:51:13;;;;;;;7.68;7.03;;;;;;;;;;5007313;28;20180;-48
2020/12/28 00:53:39;;;;;;;7.07;6.40;;;;;;;;;;5001977;28;20272;-48
2020/12/28 00:56:04;;;;;;;7.00;6.40;;;;;;;;;;5005734;28;20381;-48
2020/12/28 00:58:29;;;;;;;7.50;6.83;;;;;;;;;;5007553;28;20201;-48
2020/12/28 01:00:54;;;;;;;7.50;6.78;;;;;;;;;;5005245;28;20174;-49
2020/12/28 01:03:19;;;;;;;7.15;6.45;;;;;;;;;;4995449;28;20296;-48
2020/12/28 01:05:44;;;;;;;6.93;6.33;;;;;;;;;;5003529;28;20166;-49
2020/12/28 01:08:10;;;;;;;8.15;6.05;;;;;;;;;;5004155;28;20247;-48
2020/12/28 01:10:35;;;;;;;8.30;7.47;;;;;;;;;;5010465;28;20641;-49
2020/12/28 01:13:01;;;;;;;7.93;7.33;;;;;;;;;;5013117;28;20340;-49
2020/12/28 01:15:26;;;;;;;6.97;6.27;;;;;;;;;;4999789;28;20651;-48
2020/12/28 01:17:53;;;;;;;7.93;7.13;;;;;;;;;;5007814;28;20196;-48
2020/12/28 01:20:18;;;;;;;9.93;7.00;;;;;;;;;;5003796;28;20187;-48
2020/12/28 01:22:43;;;;;;;6.70;6.20;;;;;;;;;;5001828;28;20661;-48
2020/12/28 01:25:08;;;;;;;7.57;6.85;;;;;;;;;;5005620;28;20236;-48
2020/12/28 01:27:33;;;;;;;7.32;6.72;;;;;;;;;;5008241;28;20227;-49
2020/12/28 01:29:58;;;;;;;7.45;6.75;;;;;;;;;;5000381;28;20165;-49
2020/12/28 01:32:24;;;;;;;6.25;5.75;;;;;;;;;;4995692;28;20281;-49
2020/12/28 01:34:49;;;;;;;7.43;6.82;;;;;;;;;;4998899;28;20181;-49
2020/12/28 01:37:14;;;;;;;6.67;6.07;;;;;;;;;;5002264;28;20190;-49
2020/12/28 01:39:39;;;;;;;7.00;6.30;;;;;;;;;;5004981;28;20185;-49
2020/12/28 01:42:05;;;;;;;6.37;5.77;;;;;;;;;;4998601;28;20227;-48
2020/12/28 01:44:30;;;;;;;7.33;6.73;;;;;;;;;;4995360;28;20269;-48
2020/12/28 01:46:56;;;;;;;7.38;6.72;;;;;;;;;;5006719;28;20637;-49
2020/12/28 01:49:21;;;;;;;8.73;7.90;;;;;;;;;;5000824;28;20171;-49
2020/12/28 01:51:46;;;;;;;7.10;6.50;;;;;;;;;;4999842;28;20186;-48
2020/12/28 01:54:11;;;;;;;7.27;6.67;;;;;;;;;;4995999;28;20177;-49
2020/12/28 01:56:37;;;;;;;7.70;6.90;;;;;;;;;;5005372;28;20175;-48
2020/12/28 01:59:03;;;;;;;6.57;6.07;;;;;;;;;;5005578;28;20181;-48
2020/12/28 02:01:31;;;;;;;7.43;6.72;;;;;;;;;;5004555;28;20649;-48
2020/12/28 02:03:56;;;;;;;7.10;6.50;;;;;;;;;;4994043;28;20335;-50
2020/12/28 02:06:21;;;;;;;8.33;7.20;;;;;;;;;;4994118;28;20704;-49
2020/12/28 02:08:46;;;;;;;7.97;7.23;;;;;;;;;;4996215;28;20174;-49
2020/12/28 02:11:11;;;;;;;7.30;6.63;;;;;;;;;;4993631;28;20650;-49
2020/12/28 02:13:36;;;;;;;7.70;7.00;;;;;;;;;;5008429;28;20183;-48
2020/12/28 02:16:02;;;;;;;6.95;6.35;;;;;;;;;;5009123;28;20216;-49
2020/12/28 02:18:27;;;;;;;7.18;6.57;;;;;;;;;;4997569;28;20635;-48
2020/12/28 02:20:52;;;;;;;7.73;7.13;;;;;;;;;;4994040;28;20178;-49
2020/12/28 02:23:17;;;;;;;7.03;6.43;;;;;;;;;;5016447;28;20211;-49
2020/12/28 02:25:42;;;;;;;7.13;6.43;;;;;;;;;;4996866;28;20570;-50
2020/12/28 02:28:07;;;;;;;7.63;6.82;;;;;;;;;;5003923;28;20219;-49
2020/12/28 02:30:35;;;;;;;7.90;7.20;;;;;;;;;;5004291;28;20180;-49
2020/12/28 02:33:00;;;;;;;7.30;6.70;;;;;;;;;;5004741;28;20645;-49
2020/12/28 02:35:25;;;;;;;8.68;7.88;;;;;;;;;;4998446;28;21198;-49
2020/12/28 02:37:50;;;;;;;7.60;6.90;;;;;;;;;;4997667;28;20707;-48
2020/12/28 02:40:15;;;;;;;7.93;7.22;;;;;;;;;;5001955;28;20185;-49
2020/12/28 02:42:40;;;;;;;8.75;7.88;;;;;;;;;;5004060;28;20205;-49
2020/12/28 02:45:05;;;;;;;7.65;7.05;;;;;;;;;;4993880;28;20235;-50
2020/12/28 02:47:31;;;;;;;7.27;6.57;;;;;;;;;;5000093;28;20214;-50
2020/12/28 02:49:56;;;;;;;8.23;7.38;;;;;;;;;;4996973;28;20260;-50
2020/12/28 02:52:21;;;;;;;7.97;7.18;;;;;;;;;;4992567;28;20216;-49
2020/12/28 02:54:46;;;;;;;7.53;6.80;;;;;;;;;;4992996;28;20181;-49
2020/12/28 02:57:11;;;;;;;7.25;6.60;;;;;;;;;;4992401;28;20220;-50
2020/12/28 02:59:36;;;;;;;7.85;7.15;;;;;;;;;;5009427;28;20546;-49
2020/12/28 03:02:02;;;;;;;7.57;6.77;;;;;;;;;;4998810;28;20201;-49
2020/12/28 03:04:27;;;;;;;8.07;7.27;;;;;;;;;;4997126;28;20178;-50
2020/12/28 03:06:52;;;;;;;7.30;6.60;;;;;;;;;;4995893;28;20256;-49
2020/12/28 03:09:17;;;;;;;8.10;7.30;;;;;;;;;;5009471;28;20184;-49
2020/12/28 03:11:44;;;;;;;6.88;6.28;;;;;;;;;;5002038;28;20669;-48
2020/12/28 03:14:10;;;;;;;8.10;7.30;;;;;;;;;;5007250;28;20184;-49
2020/12/28 03:16:35;;;;;;;8.10;7.40;;;;;;;;;;5003321;28;20600;-49
2020/12/28 03:19:00;;;;;;;8.57;7.65;;;;;;;;;;5004957;28;20315;-48
2020/12/28 03:21:25;;;;;;;7.40;6.70;;;;;;;;;;4991638;28;20645;-48
2020/12/28 03:23:50;;;;;;;7.25;6.65;;;;;;;;;;4995543;28;20186;-49
2020/12/28 03:26:15;;;;;;;8.10;7.30;;;;;;;;;;5004761;28;20176;-50
2020/12/28 03:28:40;;;;;;;7.67;6.87;;;;;;;;;;5007934;28;20568;-49
2020/12/28 03:31:06;;;;;;;7.22;6.53;;;;;;;;;;4995448;28;20179;-49
2020/12/28 03:33:31;;;;;;;7.50;6.80;;;;;;;;;;5000578;28;20200;-49
2020/12/28 03:35:56;;;;;;;8.02;7.22;;;;;;;;;;5004353;28;20173;-50
2020/12/28 03:38:21;;;;;;;8.13;7.33;;;;;;;;;;4991463;28;20176;-50
2020/12/28 03:40:46;;;;;;;8.47;7.67;;;;;;;;;;4999181;28;20627;-48
2020/12/28 03:43:11;;;;;;;8.00;7.20;;;;;;;;;;5010602;28;20281;-49
2020/12/28 03:45:37;;;;;;;7.70;7.00;;;;;;;;;;4992021;28;20175;-49
2020/12/28 03:48:02;;;;;;;7.00;6.40;;;;;;;;;;4999375;28;20264;-49
2020/12/28 03:50:27;;;;;;;7.30;6.70;;;;;;;;;;4997597;28;20180;-49
2020/12/28 03:52:52;;;;;;;8.05;6.90;;;;;;;;;;5005657;28;20188;-50
2020/12/28 03:55:17;;;;;;;7.65;7.05;;;;;;;;;;4999769;28;20216;-49
2020/12/28 03:57:42;;;;;;;8.20;7.43;;;;;;;;;;5000487;28;20676;-49
2020/12/28 04:00:08;;;;;;;7.57;6.80;;;;;;;;;;5002940;28;20174;-49
2020/12/28 04:02:33;;;;;;;8.13;7.43;;;;;;;;;;5005567;28;20219;-49
2020/12/28 04:04:58;;;;;;;7.45;6.85;;;;;;;;;;4992818;28;20256;-49
2020/12/28 04:07:23;;;;;;;8.83;8.03;;;;;;;;;;5007526;28;20185;-50
2020/12/28 04:09:48;;;;;;;9.40;8.43;;;;;;;;;;4997624;28;20210;-49
2020/12/28 04:12:13;;;;;;;9.03;7.93;;;;;;;;;;4992563;28;20593;-50
2020/12/28 04:14:39;;;;;;;9.02;8.10;;;;;;;;;;4990863;28;20196;-49
2020/12/28 04:17:04;;;;;;;7.77;6.97;;;;;;;;;;4992684;28;20204;-48
2020/12/28 04:19:29;;;;;;;8.37;7.57;;;;;;;;;;5000235;28;20183;-50
2020/12/28 04:21:54;;;;;;;8.32;7.53;;;;;;;;;;5003140;28;20200;-48
2020/12/28 04:24:19;;;;;;;9.35;8.45;;;;;;;;;;4993617;28;20206;-49
2020/12/28 04:26:45;;;;;;;9.25;8.35;;;;;;;;;;5004570;28;20167;-50
2020/12/28 04:29:10;;;;;;;9.20;8.20;;;;;;;;;;4997994;28;20283;-50
2020/12/28 04:31:35;;;;;;;9.03;7.97;;;;;;;;;;4996795;28;20181;-49
2020/12/28 04:34:01;;;;;;;8.38;7.55;;;;;;;;;;4993745;28;20276;-49
2020/12/28 04:36:26;;;;;;;7.90;7.10;;;;;;;;;;4999200;28;20525;-49
2020/12/28 04:38:51;;;;;;;8.40;7.32;;;;;;;;;;5001977;28;20181;-49
2020/12/28 04:41:16;;;;;;;8.00;7.30;;;;;;;;;;5006308;28;20196;-49
2020/12/28 04:43:41;;;;;;;8.95;8.05;;;;;;;;;;4994574;28;20567;-50
2020/12/28 04:46:06;;;;;;;8.55;7.75;;;;;;;;;;5021430;28;20549;-49
2020/12/28 04:48:32;;;;;;;8.73;7.90;;;;;;;;;;4998851;28;20172;-50
2020/12/28 04:50:58;;;;;;;8.00;7.30;;;;;;;;;;5005671;28;20247;-49
2020/12/28 04:53:24;;;;;;;8.33;7.70;;;;;;;;;;5005341;28;20252;-48
2020/12/28 04:55:49;;;;;;;9.00;8.10;;;;;;;;;;4996526;28;20173;-49
2020/12/28 04:58:16;;;;;;;8.02;7.32;;;;;;;;;;5007849;28;20607;-49
2020/12/28 05:00:41;;;;;;;7.20;6.53;;;;;;;;;;4992220;28;20214;-49
2020/12/28 05:03:06;;;;;;;7.75;7.05;;;;;;;;;;4992698;28;20746;-49
2020/12/28 05:05:42;;;;;;;8.40;7.70;;;;;;;;;;5004408;28;20175;-50
2020/12/28 05:08:07;;;;;;;8.93;8.10;;;;;;;;;;4996246;28;20364;-49
2020/12/28 05:10:32;;;;;;;8.40;7.53;;;;;;;;;;5009025;28;20970;-49
2020/12/28 05:13:05;;;;;;;8.73;7.80;;;;;;;;;;4989249;28;20182;-49
2020/12/28 05:15:30;;;;;;;8.17;6.93;;;;;;;;;;4994885;28;20642;-50
2020/12/28 05:17:56;;;;;;;7.45;6.85;;;;;;;;;;4996792;28;21142;-50
2020/12/28 05:20:22;;;;;;;7.57;6.87;;;;;;;;;;4989747;28;20205;-50
2020/12/28 05:22:49;;;;;;;7.60;6.90;;;;;;;;;;5006478;28;20693;-50
2020/12/28 05:25:14;;;;;;;7.83;7.10;;;;;;;;;;5005996;28;20626;-50
2020/12/28 05:27:39;;;;;;;7.90;7.10;;;;;;;;;;4999191;28;21005;-50
2020/12/28 05:30:05;;;;;;;8.47;7.63;;;;;;;;;;5012169;28;20184;-49
2020/12/28 05:32:30;;;;;;;7.50;6.77;;;;;;;;;;5007544;28;20238;-50
2020/12/28 05:34:55;;;;;;;8.23;7.43;;;;;;;;;;4998166;28;20905;-50
2020/12/28 05:37:21;;;;;;;8.48;7.28;;;;;;;;;;5005663;28;20184;-51
2020/12/28 05:39:47;;;;;;;9.20;8.30;;;;;;;;;;5012818;28;20186;-50
2020/12/28 05:42:14;;;;;;;8.27;7.30;;;;;;;;;;4992289;28;20692;-49
2020/12/28 05:44:40;;;;;;;7.87;7.17;;;;;;;;;;5005119;28;20607;-49
2020/12/28 05:47:06;;;;;;;7.53;6.83;;;;;;;;;;5008277;28;20607;-50
2020/12/28 05:49:32;;;;;;;8.30;6.97;;;;;;;;;;5002582;28;20969;-49
2020/12/28 05:51:58;;;;;;;8.13;7.40;;;;;;;;;;5001245;28;20661;-50
2020/12/28 05:54:26;;;;;;;9.57;7.37;;;;;;;;;;5005691;28;20619;-50
2020/12/28 05:56:51;;;;;;;9.23;8.23;;;;;;;;;;4999209;28;20607;-49
2020/12/28 05:59:17;;;;;;;8.40;7.60;;;;;;;;;;5011343;28;21149;-51
2020/12/28 06:01:43;;;;;;;8.07;7.28;;;;;;;;;;5000675;28;20195;-49
2020/12/28 06:04:12;;;;;;;7.33;6.60;;;;;;;;;;5008242;28;20209;-50
2020/12/28 06:06:37;;;;;;;8.63;7.83;;;;;;;;;;4993465;28;20593;-49
2020/12/28 06:09:02;;;;;;;8.00;7.20;;;;;;;;;;5010273;28;20613;-50
2020/12/28 06:11:27;;;;;;;7.63;7.00;;;;;;;;;;4991496;28;20177;-49
2020/12/28 06:13:52;;;;;;;6.55;6.00;;;;;;;;;;5008023;28;20926;-51
2020/12/28 06:16:21;;;;;;;7.85;7.15;;;;;;;;;;4995962;28;20641;-49
2020/12/28 06:18:56;;;;;;;6.43;5.93;;;;;;;;;;5001904;28;20644;-50
2020/12/28 06:21:21;;;;;;;8.77;7.97;;;;;;;;;;4999560;28;20704;-49
2020/12/28 06:23:50;;;;;;;6.57;6.07;;;;;;;;;;4990244;28;20727;-49
2020/12/28 06:26:19;;;;;;;8.23;7.37;;;;;;;;;;5005204;28;20580;-50
2020/12/28 06:28:44;;;;;;;7.57;6.87;;;;;;;;;;5008198;28;20648;-50
2020/12/28 06:31:09;;;;;;;7.50;6.80;;;;;;;;;;5003104;28;20654;-49
2020/12/28 06:33:35;;;;;;;8.00;7.20;;;;;;;;;;4993832;28;20180;-50
2020/12/28 06:36:00;;;;;;;7.07;6.47;;;;;;;;;;4992127;28;20192;-50
2020/12/28 06:38:25;;;;;;;7.30;6.70;;;;;;;;;;5006308;28;20203;-51
2020/12/28 06:40:51;;;;;;;7.50;6.80;;;;;;;;;;4997278;28;20195;-51
2020/12/28 06:43:18;;;;;;;7.10;6.50;;;;;;;;;;4994518;28;20202;-49
2020/12/28 06:45:45;;;;;;;8.67;7.50;;;;;;;;;;5008960;28;20592;-48
2020/12/28 06:48:17;;;;;;;6.53;5.90;;;;;;;;;;5001126;28;20627;-48
2020/12/28 06:50:42;;;;;;;7.57;6.87;;;;;;;;;;5008805;28;20593;-49
2020/12/28 06:53:07;;;;;;;6.93;6.23;;;;;;;;;;4994490;28;21194;-49
2020/12/28 06:55:32;;;;;;;7.88;7.18;;;;;;;;;;5002613;28;20670;-48
2020/12/28 06:58:01;;;;;;;6.70;6.20;;;;;;;;;;5002409;28;20183;-48
2020/12/28 07:00:26;;;;;;;6.70;6.13;;;;;;;;;;5009983;28;20270;-48
2020/12/28 07:02:52;;;;;;;7.68;6.90;;;;;;;;;;5001379;28;20737;-48
2020/12/28 07:05:24;;;;;;;7.30;6.70;;;;;;;;;;4998865;28;20184;-48
2020/12/28 07:07:50;;;;;;;6.83;6.23;;;;;;;;;;5005856;28;20599;-49
2020/12/28 07:10:16;;;;;;;9.10;6.90;;;;;;;;;;4992904;28;20605;-48
2020/12/28 07:12:41;;;;;;;6.90;6.30;;;;;;;;;;5006853;28;20180;-49
2020/12/28 07:15:06;;;;;;;8.77;6.55;;;;;;;;;;5007939;28;20604;-49
2020/12/28 07:17:31;;;;;;;6.90;6.30;;;;;;;;;;5007743;28;20184;-50
2020/12/28 07:20:00;;;;;;;7.30;6.60;;;;;;;;;;5003212;28;20190;-49
2020/12/28 07:22:25;;;;;;;7.47;6.57;;;;;;;;;;5003904;28;20315;-48
2020/12/28 07:24:50;;;;;;;7.93;7.22;;;;;;;;;;5016255;28;20726;-49
2020/12/28 07:27:16;;;;;;;7.43;6.73;;;;;;;;;;5002033;28;20246;-49
2020/12/28 07:29:41;;;;;;;7.17;6.57;;;;;;;;;;4997642;28;20606;-49
2020/12/28 07:32:08;;;;;;;8.67;7.77;;;;;;;;;;4991360;28;20272;-49
2020/12/28 07:34:33;;;;;;;7.77;7.17;;;;;;;;;;5019614;28;20211;-50
2020/12/28 07:37:00;;;;;;;8.40;7.53;;;;;;;;;;5001240;28;21249;-49
2020/12/28 07:39:26;;;;;;;8.17;7.33;;;;;;;;;;4995333;28;20275;-49
2020/12/28 07:41:51;;;;;;;8.33;7.40;;;;;;;;;;4995194;28;20745;-49
2020/12/28 07:44:16;;;;;;;7.63;7.03;;;;;;;;;;5007561;28;20612;-49
2020/12/28 07:46:50;;;;;;;7.20;6.50;;;;;;;;;;4991680;28;20519;-49
2020/12/28 07:49:23;;;;;;;8.07;7.27;;;;;;;;;;4990472;28;20189;-49
2020/12/28 07:51:57;;;;;;;8.33;7.00;;;;;;;;;;4989838;28;20650;-49
2020/12/28 07:54:22;;;;;;;7.70;7.10;;;;;;;;;;4986701;28;20603;-50
2020/12/28 07:56:47;;;;;;;8.00;7.30;;;;;;;;;;4987590;28;20623;-49
2020/12/28 07:59:28;;;;;;;7.75;7.05;;;;;;;;;;5000836;28;20191;-49
2020/12/28 08:01:55;;;;;;;7.87;7.17;;;;;;;;;;4989807;28;20208;-48
2020/12/28 08:04:23;;;;;;;8.00;7.30;;;;;;;;;;5000188;28;21243;-49
2020/12/28 08:06:49;;;;;;;7.13;6.53;;;;;;;;;;5004087;28;20621;-53
2020/12/28 08:09:14;;;;;;;6.73;6.23;;;;;;;;;;5007537;28;20983;-49
2020/12/28 08:11:41;;;;;;;8.00;7.23;;;;;;;;;;5000413;28;20184;-49
2020/12/28 08:14:09;;;;;;;7.13;6.53;;;;;;;;;;5006349;28;20665;-49
2020/12/28 08:16:35;;;;;;;7.43;6.73;;;;;;;;;;5011050;28;20711;-49
2020/12/28 08:19:00;;;;;;;7.63;6.93;;;;;;;;;;5004541;28;20757;-50
2020/12/28 08:21:37;;;;;;;7.65;6.95;;;;;;;;;;5005640;28;20265;-49
2020/12/28 08:24:02;;;;;;;7.17;6.57;;;;;;;;;;4986527;28;20700;-49
2020/12/28 08:26:28;;;;;;;8.00;7.20;;;;;;;;;;5004947;28;20620;-48
2020/12/28 08:28:54;;;;;;;8.23;7.47;;;;;;;;;;5012649;28;20286;-49
2020/12/28 08:31:27;;;;;;;7.27;6.67;;;;;;;;;;4997849;28;20708;-49
2020/12/28 08:34:12;;;;;;;7.40;6.70;;;;;;;;;;4996110;28;20596;-50
2020/12/28 08:36:39;;;;;;;7.67;6.87;;;;;;;;;;4987064;28;20648;-50
2020/12/28 08:39:11;;;;;;;7.23;6.63;;;;;;;;;;5001143;28;20711;-50
2020/12/28 08:41:36;;;;;;;7.87;7.17;;;;;;;;;;4993529;28;20606;-50
2020/12/28 08:44:02;;;;;;;7.60;6.90;;;;;;;;;;5017520;28;20607;-52
2020/12/28 08:46:27;;;;;;;8.60;7.90;;;;;;;;;;5003967;28;20177;-50
2020/12/28 08:48:52;;;;;;;8.25;7.55;;;;;;;;;;4994247;28;20182;-49
2020/12/28 08:51:19;;;;;;;8.33;7.53;;;;;;;;;;5008278;28;20282;-49
2020/12/28 08:53:47;;;;;;;8.50;7.80;;;;;;;;;;4994097;28;20192;-51
2020/12/28 08:56:13;;;;;;;8.30;7.50;;;;;;;;;;5010309;28;20596;-48
2020/12/28 08:58:38;;;;;;;8.60;7.70;;;;;;;;;;5011297;28;20625;-50
2020/12/28 09:01:03;;;;;;;9.83;8.93;;;;;;;;;;5010896;28;20186;-50
2020/12/28 09:03:29;;;;;;;9.30;8.40;;;;;;;;;;4998955;28;20251;-52
2020/12/28 09:05:54;;;;;;;9.50;8.50;;;;;;;;;;5000944;28;20204;-51
2020/12/28 09:08:19;;;;;;;8.93;8.13;;;;;;;;;;5000197;28;20170;-49
2020/12/28 09:10:44;;;;;;;10.40;9.40;;;;;;;;;;5012093;28;20203;-50
2020/12/28 09:13:09;;;;;;;9.80;9.00;;;;;;;;;;5009688;28;20267;-49
2020/12/28 09:15:35;;;;;;;10.00;8.70;;;;;;;;;;5019322;28;20197;-49
2020/12/28 09:18:00;;;;;;;10.17;9.17;;;;;;;;;;5010566;28;20242;-50
2020/12/28 09:20:25;;;;;;;8.80;7.90;;;;;;;;;;4995902;28;20185;-51
2020/12/28 09:22:50;;;;;;;9.73;8.70;;;;;;;;;;5002841;28;20335;-51
2020/12/28 09:25:16;;;;;;;9.37;8.57;;;;;;;;;;5008414;28;20225;-50
2020/12/28 09:27:41;;;;;;;9.10;8.30;;;;;;;;;;5008586;28;20278;-51
2020/12/28 09:30:07;;;;;;;9.52;7.93;;;;;;;;;;5000436;28;20183;-50
2020/12/28 09:32:32;;;;;;;9.43;8.53;;;;;;;;;;4998410;28;20199;-49
2020/12/28 09:34:57;;;;;;;9.20;8.30;;;;;;;;;;4993623;28;21398;-49
2020/12/28 09:37:23;;;;;;;9.18;8.27;;;;;;;;;;4993759;28;20195;-50
2020/12/28 09:39:48;;;;;;;8.73;7.93;;;;;;;;;;5004344;28;20191;-50
2020/12/28 09:42:13;;;;;;;9.95;9.05;;;;;;;;;;4991695;28;20312;-51
2020/12/28 09:44:38;;;;;;;9.07;8.27;;;;;;;;;;5010770;28;20181;-50
2020/12/28 09:47:03;;;;;;;9.70;8.80;;;;;;;;;;5004760;28;20203;-50
2020/12/28 09:49:28;;;;;;;10.60;9.45;;;;;;;;;;5012159;28;20166;-50
2020/12/28 09:51:54;;;;;;;9.10;8.30;;;;;;;;;;5006605;28;20192;-49
2020/12/28 09:54:20;;;;;;;9.67;8.80;;;;;;;;;;5010185;28;20542;-50
2020/12/28 09:56:45;;;;;;;9.40;8.53;;;;;;;;;;4995668;28;20182;-51
2020/12/28 09:59:10;;;;;;;9.80;8.97;;;;;;;;;;5008034;28;20974;-51
2020/12/28 10:01:35;;;;;;;9.50;8.57;;;;;;;;;;5013165;28;20181;-50
2020/12/28 10:04:00;;;;;;;10.50;9.40;;;;;;;;;;4997908;28;20205;-50
2020/12/28 10:06:31;;;;;;;9.20;8.45;;;;;;;;;;5013443;28;20519;-50
2020/12/28 10:08:57;;;;;;;9.73;8.87;;;;;;;;;;4996020;28;20181;-50
2020/12/28 10:11:22;;;;;;;10.57;9.33;;;;;;;;;;4995325;28;20716;-52
2020/12/28 10:13:48;;;;;;;9.55;8.73;;;;;;;;;;4990922;28;20260;-50
2020/12/28 10:16:13;;;;;;;8.88;8.07;;;;;;;;;;4995775;28;20173;-51
2020/12/28 10:18:41;;;;;;;10.57;9.50;;;;;;;;;;4994274;28;20244;-53
2020/12/28 10:21:07;;;;;;;9.50;8.40;;;;;;;;;;5006231;28;20206;-52
2020/12/28 10:23:32;;;;;;;9.60;8.70;;;;;;;;;;4997355;28;20684;-53
2020/12/28 10:25:57;;;;;;;9.52;8.70;;;;;;;;;;4994535;28;20696;-52
2020/12/28 10:28:22;;;;;;;10.23;9.13;;;;;;;;;;5002126;28;20599;-51
2020/12/28 10:30:47;;;;;;;9.25;8.40;;;;;;;;;;5003820;28;20195;-52
2020/12/28 10:33:13;;;;;;;9.32;8.43;;;;;;;;;;5001333;28;20236;-53
2020/12/28 10:35:38;;;;;;;10.45;9.10;;;;;;;;;;5001373;28;20683;-53
2020/12/28 10:38:03;;;;;;;9.48;8.65;;;;;;;;;;4992589;28;20190;-52
2020/12/28 10:40:28;;;;;;;11.07;9.98;;;;;;;;;;5000971;28;20189;-50
2020/12/28 10:42:53;;;;;;;10.80;9.73;;;;;;;;;;5003323;28;20749;-50
2020/12/28 10:45:19;;;;;;;12.77;10.00;;;;;;;;;;4999399;28;20183;-50
2020/12/28 10:47:44;;;;;;;10.20;9.20;;;;;;;;;;5001482;28;20534;-49
2020/12/28 10:50:09;;;;;;;10.77;9.45;;;;;;;;;;4995743;28;20175;-49
2020/12/28 10:52:34;;;;;;;12.13;9.90;;;;;;;;;;5003217;28;20212;-49
2020/12/28 10:54:59;;;;;;;9.98;9.07;;;;;;;;;;5005486;28;21485;-49
2020/12/28 10:57:24;;;;;;;9.50;8.60;;;;;;;;;;5010542;28;20181;-51
2020/12/28 10:59:49;;;;;;;10.40;9.40;;;;;;;;;;5001006;28;20188;-50
2020/12/28 11:02:15;;;;;;;9.17;8.37;;;;;;;;;;4994361;28;20544;-50
2020/12/28 11:04:41;;;;;;;10.43;9.33;;;;;;;;;;4989335;28;20180;-49
2020/12/28 11:07:06;;;;;;;9.53;8.63;;;;;;;;;;4997556;28;20355;-49
2020/12/28 11:09:31;;;;;;;10.25;8.98;;;;;;;;;;5010290;28;21002;-49
2020/12/28 11:11:56;;;;;;;10.80;9.70;;;;;;;;;;4999458;28;20258;-50
2020/12/28 11:14:21;;;;;;;10.33;9.40;;;;;;;;;;4990268;28;20441;-50
2020/12/28 11:16:47;;;;;;;11.43;10.05;;;;;;;;;;4991280;28;20296;-49
2020/12/28 11:19:12;;;;;;;9.27;8.37;;;;;;;;;;4996655;28;20190;-50
2020/12/28 11:21:37;;;;;;;12.67;9.83;;;;;;;;;;4999525;28;20675;-49
2020/12/28 11:24:02;;;;;;;10.80;9.70;;;;;;;;;;5005490;28;20200;-50
2020/12/28 11:26:31;;;;;;;10.90;9.82;;;;;;;;;;5007683;28;20217;-50
2020/12/28 11:28:57;;;;;;;11.73;10.57;;;;;;;;;;5004883;28;20458;-50
2020/12/28 11:31:22;;;;;;;10.67;9.67;;;;;;;;;;5005281;28;20957;-50
2020/12/28 11:33:47;;;;;;;10.30;9.30;;;;;;;;;;5021103;28;20177;-52
2020/12/28 11:36:13;;;;;;;11.30;10.17;;;;;;;;;;5003782;28;20185;-50
2020/12/28 11:38:38;;;;;;;10.37;9.37;;;;;;;;;;5013599;28;20276;-50
2020/12/28 11:41:04;;;;;;;11.23;10.13;;;;;;;;;;4995371;28;20185;-50
2020/12/28 11:43:29;;;;;;;11.03;10.00;;;;;;;;;;5009695;28;20224;-50
2020/12/28 11:45:54;;;;;;;10.60;9.50;;;;;;;;;;5018254;28;20219;-50
2020/12/28 11:48:20;;;;;;;12.90;9.87;;;;;;;;;;4994491;28;20835;-49
2020/12/28 11:50:45;;;;;;;11.23;9.70;;;;;;;;;;5005032;28;20275;-50
2020/12/28 11:53:10;;;;;;;11.30;10.13;;;;;;;;;;5009377;28;20224;-50
2020/12/28 11:58:19;;;;;;;10.13;9.20;;;;;;;;;;4995627;28;20644;-50
2020/12/28 12:00:44;;;;;;;9.87;8.97;;;;;;;;;;4999562;28;20604;-50
2020/12/28 12:03:09;;;;;;;11.90;10.70;;;;;;;;;;4995190;28;20625;-51
2020/12/28 12:05:34;;;;;;;11.68;10.52;;;;;;;;;;5010001;28;20995;-49
2020/12/28 12:08:00;;;;;;;11.73;10.35;;;;;;;;;;5008586;28;20177;-50
2020/12/28 12:10:25;;;;;;;10.05;9.15;;;;;;;;;;5000348;28;20176;-49
2020/12/28 12:12:50;;;;;;;11.88;10.68;;;;;;;;;;5000592;28;20534;-49
2020/12/28 12:15:15;;;;;;;11.10;10.05;;;;;;;;;;4994139;28;20181;-50
2020/12/28 12:17:40;;;;;;;11.20;9.60;;;;;;;;;;5002848;28;20273;-49
2020/12/28 12:20:05;;;;;;;11.55;10.23;;;;;;;;;;5000474;28;20664;-49
2020/12/28 12:22:30;;;;;;;11.13;10.03;;;;;;;;;;4989578;28;20253;-49
2020/12/28 12:24:56;;;;;;;11.50;10.40;;;;;;;;;;4991664;28;20197;-49
2020/12/28 12:27:21;;;;;;;11.70;9.70;;;;;;;;;;5002867;28;20629;-50
2020/12/28 12:29:46;;;;;;;10.20;9.20;;;;;;;;;;4990539;28;20182;-48
2020/12/28 12:32:11;;;;;;;11.40;9.88;;;;;;;;;;4997708;28;20246;-51
2020/12/28 12:34:36;;;;;;;11.67;9.80;;;;;;;;;;4992550;28;20221;-50
2020/12/28 12:37:01;;;;;;;10.90;9.80;;;;;;;;;;4994185;28;20253;-50
2020/12/28 12:39:27;;;;;;;10.73;9.77;;;;;;;;;;4994389;28;20184;-50
2020/12/28 12:41:52;;;;;;;12.30;9.70;;;;;;;;;;5004552;28;20708;-50
2020/12/28 12:44:17;;;;;;;12.48;10.55;;;;;;;;;;4992963;28;20182;-50
2020/12/28 12:46:42;;;;;;;12.05;10.88;;;;;;;;;;5000334;28;20181;-51
2020/12/28 12:49:07;;;;;;;12.60;10.55;;;;;;;;;;5012812;28;20653;-51
2020/12/28 12:51:32;;;;;;;12.10;10.80;;;;;;;;;;5001002;28;20170;-50
2020/12/28 12:53:57;;;;;;;14.05;11.60;;;;;;;;;;4998349;28;20182;-51
2020/12/28 12:56:23;;;;;;;12.43;11.13;;;;;;;;;;4999734;28;20189;-50
2020/12/28 12:58:48;;;;;;;12.35;11.00;;;;;;;;;;5000082;28;20176;-51
2020/12/28 13:01:13;;;;;;;13.37;11.97;;;;;;;;;;4998865;28;20598;-51
2020/12/28 13:03:38;;;;;;;12.77;11.37;;;;;;;;;;5000255;28;20694;-51
2020/12/28 13:06:04;;;;;;;12.77;11.30;;;;;;;;;;4999272;28;20216;-51
2020/12/28 13:08:29;;;;;;;12.73;11.15;;;;;;;;;;4987902;28;20182;-51
2020/12/28 13:10:55;;;;;;;13.70;12.07;;;;;;;;;;4992174;28;20187;-48
2020/12/28 13:13:20;;;;;;;13.35;11.93;;;;;;;;;;4999704;28;20636;-48
2020/12/28 13:15:47;;;;;;;15.65;12.80;;;;;;;;;;4997082;28;20208;-51
2020/12/28 13:18:12;;;;;;;14.43;12.20;;;;;;;;;;4992450;28;20181;-50
2020/12/28 13:20:37;;;;;;;13.35;11.82;;;;;;;;;;5002788;28;20677;-50
2020/12/28 13:23:05;;;;;;;13.32;11.93;;;;;;;;;;4994861;28;20517;-51
2020/12/28 13:25:30;;;;;;;14.30;12.43;;;;;;;;;;4985454;28;20886;-51
2020/12/28 13:27:55;;;;;;;14.35;11.45;;;;;;;;;;4994760;28;21240;-49
2020/12/28 13:30:20;;;;;;;13.77;12.10;;;;;;;;;;4992893;28;20282;-48
2020/12/28 13:32:46;;;;;;;14.83;12.37;;;;;;;;;;4991179;28;20559;-49
2020/12/28 13:35:11;;;;;;;13.23;11.93;;;;;;;;;;5001011;28;20616;-49
2020/12/28 13:37:36;;;;;;;15.40;13.63;;;;;;;;;;4992346;28;20184;-49
2020/12/28 13:40:01;;;;;;;15.00;12.77;;;;;;;;;;4993643;28;20189;-49
2020/12/28 13:42:26;;;;;;;14.07;12.40;;;;;;;;;;5004274;28;20261;-48
2020/12/28 13:44:51;;;;;;;13.47;12.03;;;;;;;;;;4992565;28;20194;-49
2020/12/28 13:47:17;;;;;;;13.37;11.73;;;;;;;;;;5004292;28;20177;-49
2020/12/28 13:49:42;;;;;;;17.17;12.47;;;;;;;;;;4994902;28;20179;-48
2020/12/28 13:52:07;;;;;;;13.93;12.43;;;;;;;;;;4990323;28;20192;-49
2020/12/28 13:54:32;;;;;;;13.23;11.83;;;;;;;;;;4996419;28;20596;-48
2020/12/28 13:56:59;;;;;;;13.93;12.47;;;;;;;;;;4995713;28;20654;-48
2020/12/28 13:59:24;;;;;;;15.03;12.80;;;;;;;;;;5006036;28;20571;-49
2020/12/28 14:01:49;;;;;;;13.27;11.80;;;;;;;;;;5000621;28;20611;-49
2020/12/28 14:04:15;;;;;;;14.88;13.38;;;;;;;;;;4997512;28;20177;-49
2020/12/28 14:06:40;;;;;;;14.53;12.93;;;;;;;;;;4992765;28;20184;-49
2020/12/28 14:09:05;;;;;;;12.80;11.60;;;;;;;;;;5000267;28;20565;-48
2020/12/28 14:11:31;;;;;;;16.27;13.90;;;;;;;;;;4999223;28;20204;-50
2020/12/28 14:13:56;;;;;;;14.03;12.53;;;;;;;;;;4988096;28;20187;-48
2020/12/28 14:16:21;;;;;;;14.37;12.23;;;;;;;;;;5002452;28;21022;-48
2020/12/28 14:18:47;;;;;;;15.07;13.50;;;;;;;;;;4993510;28;20188;-49
2020/12/28 14:21:13;;;;;;;14.33;12.70;;;;;;;;;;5000457;28;20188;-48
2020/12/28 14:23:39;;;;;;;13.00;11.63;;;;;;;;;;4997250;28;20215;-49
2020/12/28 14:26:12;;;;;;;14.80;13.37;;;;;;;;;;4995821;28;20679;-48
2020/12/28 14:28:37;;;;;;;13.03;11.30;;;;;;;;;;4993875;28;20648;-49
2020/12/28 14:31:03;;;;;;;14.70;13.17;;;;;;;;;;4988461;28;20620;-48